sensor_id;sensor_type;location;lat;lon;timestamp;pressure;altitude;pressure_sealevel;temperature;humidity
57114;BME280;42994;51.606;9.988;2023-08-01T00:01:46;97955.75;;;15.48;100.00
57114;BME280;42994;51.606;9.988;2023-08-01T00:04:13;97939.84;;;15.30;100.00
57114;BME280;42994;51.606;9.988;2023-08-01T00:06:41;97935.56;;;15.34;100.00
57114;BME280;42994;51.606;9.988;2023-08-01T00:09:10;97915.56;;;15.30;100.00
57114;BME280;42994;51.606;9.988;2023-08-01T00:11:37;97916.91;;;15.32;100.00
57114;BME280;42994;51.606;9.988;2023-08-01T00:14:05;97919.63;;;15.32;100.00
57114;BME280;42994;51.606;9.988;2023-08-01T00:16:34;97922.06;;;15.34;100.00
57114;BME280;42994;51.606;9.988;2023-08-01T00:19:01;97915.59;;;15.35;100.00
57114;BME280;42994;51.606;9.988;2023-08-01T00:21:28;97906.19;;;15.37;100.00
57114;BME280;42994;51.606;9.988;2023-08-01T00:23:57;97906.50;;;15.41;100.00
57114;BME280;42994;51.606;9.988;2023-08-01T00:26:24;97890.63;;;15.45;100.00
57114;BME280;42994;51.606;9.988;2023-08-01T00:28:51;97882.22;;;15.41;100.00
57114;BME280;42994;51.606;9.988;2023-08-01T00:31:19;97874.59;;;15.38;100.00
57114;BME280;42994;51.606;9.988;2023-08-01T00:33:47;97858.41;;;15.38;100.00
57114;BME280;42994;51.606;9.988;2023-08-01T00:36:14;97866.25;;;15.40;100.00
57114;BME280;42994;51.606;9.988;2023-08-01T00:38:42;97871.84;;;15.33;100.00
57114;BME280;42994;51.606;9.988;2023-08-01T00:41:09;97858.72;;;15.42;100.00
57114;BME280;42994;51.606;9.988;2023-08-01T00:43:36;97863.94;;;15.48;100.00
57114;BME280;42994;51.606;9.988;2023-08-01T00:46:04;97865.06;;;15.52;100.00
57114;BME280;42994;51.606;9.988;2023-08-01T00:48:31;97840.63;;;15.42;100.00
57114;BME280;42994;51.606;9.988;2023-08-01T00:51:05;97845.47;;;15.40;100.00
57114;BME280;42994;51.606;9.988;2023-08-01T00:53:32;97836.63;;;15.45;100.00
57114;BME280;42994;51.606;9.988;2023-08-01T00:56:00;97836.38;;;15.46;100.00
57114;BME280;42994;51.606;9.988;2023-08-01T00:58:27;97830.44;;;15.49;100.00
57114;BME280;42994;51.606;9.988;2023-08-01T01:00:54;97837.69;;;15.44;100.00
57114;BME280;42994;51.606;9.988;2023-08-01T01:03:23;97828.59;;;15.50;100.00
57114;BME280;42994;51.606;9.988;2023-08-01T01:05:53;97823.03;;;15.62;100.00
57114;BME280;42994;51.606;9.988;2023-08-01T01:08:26;97812.28;;;15.67;100.00
57114;BME280;42994;51.606;9.988;2023-08-01T01:10:53;97790.78;;;15.50;100.00
57114;BME280;42994;51.606;9.988;2023-08-01T01:13:19;97792.06;;;15.47;100.00
57114;BME280;42994;51.606;9.988;2023-08-01T01:15:47;97784.84;;;15.53;100.00
57114;BME280;42994;51.606;9.988;2023-08-01T01:18:13;97774.03;;;15.53;100.00
57114;BME280;42994;51.606;9.988;2023-08-01T01:20:42;97768.44;;;15.60;100.00
57114;BME280;42994;51.606;9.988;2023-08-01T01:23:11;97755.50;;;15.62;100.00
57114;BME280;42994;51.606;9.988;2023-08-01T01:25:39;97725.66;;;15.46;100.00
57114;BME280;42994;51.606;9.988;2023-08-01T01:28:07;97688.16;;;15.50;100.00
57114;BME280;42994;51.606;9.988;2023-08-01T01:30:38;97664.56;;;15.40;100.00
57114;BME280;42994;51.606;9.988;2023-08-01T01:33:05;97680.19;;;15.38;100.00
57114;BME280;42994;51.606;9.988;2023-08-01T01:35:37;97709.84;;;15.33;100.00
57114;BME280;42994;51.606;9.988;2023-08-01T01:41:48;97755.81;;;15.38;100.00
57114;BME280;42994;51.606;9.988;2023-08-01T01:44:15;97766.91;;;15.42;100.00
57114;BME280;42994;51.606;9.988;2023-08-01T01:46:41;97788.75;;;15.40;100.00
57114;BME280;42994;51.606;9.988;2023-08-01T01:49:08;97799.06;;;15.43;100.00
57114;BME280;42994;51.606;9.988;2023-08-01T01:51:35;97796.38;;;15.43;100.00
57114;BME280;42994;51.606;9.988;2023-08-01T01:54:01;97797.41;;;15.42;100.00
57114;BME280;42994;51.606;9.988;2023-08-01T01:56:28;97784.22;;;15.46;100.00
57114;BME280;42994;51.606;9.988;2023-08-01T01:58:56;97789.91;;;15.44;100.00
57114;BME280;42994;51.606;9.988;2023-08-01T02:01:23;97785.81;;;15.42;100.00
57114;BME280;42994;51.606;9.988;2023-08-01T02:03:50;97785.25;;;15.40;100.00
57114;BME280;42994;51.606;9.988;2023-08-01T02:06:16;97782.56;;;15.40;100.00
57114;BME280;42994;51.606;9.988;2023-08-01T02:08:43;97775.31;;;15.45;100.00
57114;BME280;42994;51.606;9.988;2023-08-01T02:11:10;97765.28;;;15.41;100.00
57114;BME280;42994;51.606;9.988;2023-08-01T02:13:37;97759.91;;;15.41;100.00
57114;BME280;42994;51.606;9.988;2023-08-01T02:16:05;97755.81;;;15.38;100.00
57114;BME280;42994;51.606;9.988;2023-08-01T02:18:31;97754.50;;;15.41;100.00
57114;BME280;42994;51.606;9.988;2023-08-01T02:20:58;97752.34;;;15.43;100.00
57114;BME280;42994;51.606;9.988;2023-08-01T02:23:25;97755.09;;;15.48;100.00
57114;BME280;42994;51.606;9.988;2023-08-01T02:25:51;97748.78;;;15.37;100.00
57114;BME280;42994;51.606;9.988;2023-08-01T02:28:18;97734.19;;;15.38;100.00
57114;BME280;42994;51.606;9.988;2023-08-01T02:30:44;97731.75;;;15.36;100.00
57114;BME280;42994;51.606;9.988;2023-08-01T02:33:13;97721.19;;;15.35;100.00
57114;BME280;42994;51.606;9.988;2023-08-01T02:35:39;97703.75;;;15.43;100.00
57114;BME280;42994;51.606;9.988;2023-08-01T02:38:06;97687.00;;;15.41;100.00
57114;BME280;42994;51.606;9.988;2023-08-01T02:40:32;97679.38;;;15.37;100.00
57114;BME280;42994;51.606;9.988;2023-08-01T02:42:59;97660.50;;;15.37;100.00
57114;BME280;42994;51.606;9.988;2023-08-01T02:45:26;97655.66;;;15.40;100.00
57114;BME280;42994;51.606;9.988;2023-08-01T02:47:52;97627.31;;;15.42;100.00
57114;BME280;42994;51.606;9.988;2023-08-01T02:50:20;97583.84;;;15.44;100.00
57114;BME280;42994;51.606;9.988;2023-08-01T02:52:47;97566.50;;;15.34;100.00
57114;BME280;42994;51.606;9.988;2023-08-01T02:55:13;97574.59;;;15.34;100.00
57114;BME280;42994;51.606;9.988;2023-08-01T02:57:40;97577.81;;;15.31;100.00
57114;BME280;42994;51.606;9.988;2023-08-01T03:00:07;97572.69;;;15.35;100.00
57114;BME280;42994;51.606;9.988;2023-08-01T03:02:37;97577.00;;;15.31;100.00
57114;BME280;42994;51.606;9.988;2023-08-01T03:05:05;97568.66;;;15.32;100.00
57114;BME280;42994;51.606;9.988;2023-08-01T03:07:34;97547.84;;;15.33;100.00
57114;BME280;42994;51.606;9.988;2023-08-01T03:10:01;97547.94;;;15.43;100.00
57114;BME280;42994;51.606;9.988;2023-08-01T03:12:28;97538.78;;;15.44;100.00
57114;BME280;42994;51.606;9.988;2023-08-01T03:14:54;97506.38;;;15.49;100.00
57114;BME280;42994;51.606;9.988;2023-08-01T03:17:21;97514.47;;;15.44;100.00
57114;BME280;42994;51.606;9.988;2023-08-01T03:19:48;97500.69;;;15.41;100.00
57114;BME280;42994;51.606;9.988;2023-08-01T03:22:15;97479.88;;;15.41;100.00
57114;BME280;42994;51.606;9.988;2023-08-01T03:24:44;97481.19;;;15.38;100.00
57114;BME280;42994;51.606;9.988;2023-08-01T03:27:11;97527.91;;;15.34;100.00
57114;BME280;42994;51.606;9.988;2023-08-01T03:29:38;97498.25;;;15.39;100.00
57114;BME280;42994;51.606;9.988;2023-08-01T03:32:05;97520.13;;;15.43;100.00
57114;BME280;42994;51.606;9.988;2023-08-01T03:34:31;97575.75;;;15.44;100.00
57114;BME280;42994;51.606;9.988;2023-08-01T03:36:58;97590.34;;;15.43;100.00
57114;BME280;42994;51.606;9.988;2023-08-01T03:39:25;97574.44;;;15.46;100.00
57114;BME280;42994;51.606;9.988;2023-08-01T03:41:53;97572.28;;;15.48;100.00
57114;BME280;42994;51.606;9.988;2023-08-01T03:44:19;97587.38;;;15.44;100.00
57114;BME280;42994;51.606;9.988;2023-08-01T03:46:46;97581.16;;;15.44;100.00
57114;BME280;42994;51.606;9.988;2023-08-01T03:49:13;97581.16;;;15.44;100.00
57114;BME280;42994;51.606;9.988;2023-08-01T03:51:39;97607.09;;;15.45;100.00
57114;BME280;42994;51.606;9.988;2023-08-01T03:54:06;97610.81;;;15.38;100.00
57114;BME280;42994;51.606;9.988;2023-08-01T03:56:33;97621.31;;;15.35;100.00
57114;BME280;42994;51.606;9.988;2023-08-01T03:59:01;97605.19;;;15.45;100.00
57114;BME280;42994;51.606;9.988;2023-08-01T04:01:29;97611.94;;;15.43;100.00
57114;BME280;42994;51.606;9.988;2023-08-01T04:03:56;97610.53;;;15.40;100.00
57114;BME280;42994;51.606;9.988;2023-08-01T04:06:22;97605.69;;;15.42;100.00
57114;BME280;42994;51.606;9.988;2023-08-01T04:08:49;97594.66;;;15.44;100.00
57114;BME280;42994;51.606;9.988;2023-08-01T04:11:17;97570.06;;;15.40;100.00
57114;BME280;42994;51.606;9.988;2023-08-01T04:13:43;97554.97;;;15.44;100.00
57114;BME280;42994;51.606;9.988;2023-08-01T04:16:11;97550.91;;;15.42;100.00
57114;BME280;42994;51.606;9.988;2023-08-01T04:18:38;97558.00;;;15.53;100.00
57114;BME280;42994;51.606;9.988;2023-08-01T04:21:04;97544.72;;;15.46;100.00
57114;BME280;42994;51.606;9.988;2023-08-01T04:23:31;97539.88;;;15.48;100.00
57114;BME280;42994;51.606;9.988;2023-08-01T04:25:58;97577.03;;;15.36;100.00
57114;BME280;42994;51.606;9.988;2023-08-01T04:28:25;97577.56;;;15.33;100.00
57114;BME280;42994;51.606;9.988;2023-08-01T04:30:51;97571.19;;;15.44;100.00
57114;BME280;42994;51.606;9.988;2023-08-01T04:33:20;97557.16;;;15.47;100.00
57114;BME280;42994;51.606;9.988;2023-08-01T04:35:46;97556.00;;;15.38;100.00
57114;BME280;42994;51.606;9.988;2023-08-01T04:38:14;97551.09;;;15.35;100.00
57114;BME280;42994;51.606;9.988;2023-08-01T04:40:41;97533.88;;;15.41;100.00
57114;BME280;42994;51.606;9.988;2023-08-01T04:43:07;97429.66;;;15.40;100.00
57114;BME280;42994;51.606;9.988;2023-08-01T04:45:34;97548.44;;;15.40;100.00
57114;BME280;42994;51.606;9.988;2023-08-01T04:48:01;97613.47;;;15.33;100.00
57114;BME280;42994;51.606;9.988;2023-08-01T04:50:29;97667.97;;;15.30;100.00
57114;BME280;42994;51.606;9.988;2023-08-01T04:52:56;97708.47;;;15.30;100.00
57114;BME280;42994;51.606;9.988;2023-08-01T04:55:22;97699.56;;;15.30;100.00
57114;BME280;42994;51.606;9.988;2023-08-01T04:57:49;97701.44;;;15.29;100.00
57114;BME280;42994;51.606;9.988;2023-08-01T05:00:17;97661.53;;;15.36;100.00
57114;BME280;42994;51.606;9.988;2023-08-01T05:02:43;97639.13;;;15.36;100.00
57114;BME280;42994;51.606;9.988;2023-08-01T05:05:10;97636.38;;;15.31;100.00
57114;BME280;42994;51.606;9.988;2023-08-01T05:07:38;97649.84;;;15.26;100.00
57114;BME280;42994;51.606;9.988;2023-08-01T05:10:05;97643.63;;;15.25;100.00
57114;BME280;42994;51.606;9.988;2023-08-01T05:12:32;97646.06;;;15.27;100.00
57114;BME280;42994;51.606;9.988;2023-08-01T05:14:58;97660.06;;;15.24;100.00
57114;BME280;42994;51.606;9.988;2023-08-01T05:17:25;97671.13;;;15.22;100.00
57114;BME280;42994;51.606;9.988;2023-08-01T05:19:51;97687.31;;;15.22;100.00
57114;BME280;42994;51.606;9.988;2023-08-01T05:22:18;97663.81;;;15.17;100.00
57114;BME280;42994;51.606;9.988;2023-08-01T05:24:46;97656.38;;;15.30;100.00
57114;BME280;42994;51.606;9.988;2023-08-01T05:27:13;97643.06;;;15.23;100.00
57114;BME280;42994;51.606;9.988;2023-08-01T05:29:39;97640.69;;;15.27;100.00
57114;BME280;42994;51.606;9.988;2023-08-01T05:32:06;97628.28;;;15.31;100.00
57114;BME280;42994;51.606;9.988;2023-08-01T05:34:33;97640.97;;;15.30;100.00
57114;BME280;42994;51.606;9.988;2023-08-01T05:39:41;97634.78;;;15.35;100.00
57114;BME280;42994;51.606;9.988;2023-08-01T05:42:09;97629.69;;;15.33;100.00
57114;BME280;42994;51.606;9.988;2023-08-01T05:44:36;97622.34;;;15.29;100.00
57114;BME280;42994;51.606;9.988;2023-08-01T05:47:03;97624.53;;;15.32;100.00
57114;BME280;42994;51.606;9.988;2023-08-01T05:49:30;97627.22;;;15.32;100.00
57114;BME280;42994;51.606;9.988;2023-08-01T05:51:56;97634.25;;;15.33;100.00
57114;BME280;42994;51.606;9.988;2023-08-01T05:54:23;97628.53;;;15.29;100.00
57114;BME280;42994;51.606;9.988;2023-08-01T05:56:50;97637.94;;;15.22;100.00
57114;BME280;42994;51.606;9.988;2023-08-01T05:59:17;97637.41;;;15.25;100.00
57114;BME280;42994;51.606;9.988;2023-08-01T06:01:45;97641.44;;;15.22;100.00
57114;BME280;42994;51.606;9.988;2023-08-01T06:04:11;97669.75;;;15.19;100.00
57114;BME280;42994;51.606;9.988;2023-08-01T06:06:38;97653.75;;;15.13;100.00
57114;BME280;42994;51.606;9.988;2023-08-01T06:09:04;97654.47;;;15.03;100.00
57114;BME280;42994;51.606;9.988;2023-08-01T06:11:31;97640.06;;;14.92;100.00
57114;BME280;42994;51.606;9.988;2023-08-01T06:13:58;97630.06;;;14.93;100.00
57114;BME280;42994;51.606;9.988;2023-08-01T06:16:26;97623.06;;;14.92;100.00
57114;BME280;42994;51.606;9.988;2023-08-01T06:18:53;97631.84;;;15.09;100.00
57114;BME280;42994;51.606;9.988;2023-08-01T06:21:20;97628.25;;;14.71;100.00
57114;BME280;42994;51.606;9.988;2023-08-01T06:23:46;97622.56;;;14.73;100.00
57114;BME280;42994;51.606;9.988;2023-08-01T06:26:13;97618.13;;;14.61;100.00
57114;BME280;42994;51.606;9.988;2023-08-01T06:28:40;97630.50;;;14.57;100.00
57114;BME280;42994;51.606;9.988;2023-08-01T06:31:07;97621.94;;;14.43;100.00
57114;BME280;42994;51.606;9.988;2023-08-01T06:33:35;97417.91;;;14.49;100.00
57114;BME280;42994;51.606;9.988;2023-08-01T06:36:02;97492.03;;;14.47;100.00
57114;BME280;42994;51.606;9.988;2023-08-01T06:38:28;97505.75;;;14.45;100.00
57114;BME280;42994;51.606;9.988;2023-08-01T06:40:55;97559.66;;;14.45;100.00
57114;BME280;42994;51.606;9.988;2023-08-01T06:43:22;97565.00;;;14.40;100.00
57114;BME280;42994;51.606;9.988;2023-08-01T06:45:49;97568.78;;;14.39;100.00
57114;BME280;42994;51.606;9.988;2023-08-01T06:48:16;97585.44;;;14.36;100.00
57114;BME280;42994;51.606;9.988;2023-08-01T06:50:44;97624.50;;;14.33;100.00
57114;BME280;42994;51.606;9.988;2023-08-01T06:53:11;97623.69;;;14.33;100.00
57114;BME280;42994;51.606;9.988;2023-08-01T06:55:37;97628.19;;;14.27;100.00
57114;BME280;42994;51.606;9.988;2023-08-01T06:58:05;97627.94;;;14.29;100.00
57114;BME280;42994;51.606;9.988;2023-08-01T07:00:31;97634.41;;;14.28;100.00
57114;BME280;42994;51.606;9.988;2023-08-01T07:02:58;97629.84;;;14.28;100.00
57114;BME280;42994;51.606;9.988;2023-08-01T07:05:25;97642.50;;;14.28;100.00
57114;BME280;42994;51.606;9.988;2023-08-01T07:07:53;97628.94;;;14.22;100.00
57114;BME280;42994;51.606;9.988;2023-08-01T07:10:19;97630.84;;;14.22;100.00
57114;BME280;42994;51.606;9.988;2023-08-01T07:12:46;97631.31;;;14.19;100.00
57114;BME280;42994;51.606;9.988;2023-08-01T07:15:13;97643.16;;;14.18;100.00
57114;BME280;42994;51.606;9.988;2023-08-01T07:17:40;97643.16;;;14.18;100.00
57114;BME280;42994;51.606;9.988;2023-08-01T07:20:07;97644.81;;;14.19;100.00
57114;BME280;42994;51.606;9.988;2023-08-01T07:22:34;97657.78;;;14.22;100.00
57114;BME280;42994;51.606;9.988;2023-08-01T07:25:02;97655.66;;;14.24;100.00
57114;BME280;42994;51.606;9.988;2023-08-01T07:27:29;97658.84;;;14.21;100.00
57114;BME280;42994;51.606;9.988;2023-08-01T07:29:55;97654.81;;;14.23;100.00
57114;BME280;42994;51.606;9.988;2023-08-01T07:32:22;97655.13;;;14.27;100.00
57114;BME280;42994;51.606;9.988;2023-08-01T07:34:52;97651.38;;;14.28;100.00
57114;BME280;42994;51.606;9.988;2023-08-01T07:37:19;97662.75;;;14.30;100.00
57114;BME280;42994;51.606;9.988;2023-08-01T07:39:45;97669.41;;;14.45;100.00
57114;BME280;42994;51.606;9.988;2023-08-01T07:42:13;97660.19;;;14.40;100.00
57114;BME280;42994;51.606;9.988;2023-08-01T07:44:40;97672.59;;;14.41;100.00
57114;BME280;42994;51.606;9.988;2023-08-01T07:47:07;97678.75;;;14.37;100.00
57114;BME280;42994;51.606;9.988;2023-08-01T07:49:33;97680.59;;;14.36;100.00
57114;BME280;42994;51.606;9.988;2023-08-01T07:52:00;97692.47;;;14.35;100.00
57114;BME280;42994;51.606;9.988;2023-08-01T07:54:27;97698.41;;;14.37;100.00
57114;BME280;42994;51.606;9.988;2023-08-01T07:56:53;97710.25;;;14.36;100.00
57114;BME280;42994;51.606;9.988;2023-08-01T07:59:21;97715.06;;;14.34;100.00
57114;BME280;42994;51.606;9.988;2023-08-01T08:01:48;97717.78;;;14.34;100.00
57114;BME280;42994;51.606;9.988;2023-08-01T08:04:14;97722.69;;;14.37;100.00
57114;BME280;42994;51.606;9.988;2023-08-01T08:06:41;97710.78;;;14.33;100.00
57114;BME280;42994;51.606;9.988;2023-08-01T08:09:08;97724.41;;;14.27;100.00
57114;BME280;42994;51.606;9.988;2023-08-01T08:11:34;97740.81;;;14.25;100.00
57114;BME280;42994;51.606;9.988;2023-08-01T08:14:01;97740.41;;;14.16;100.00
57114;BME280;42994;51.606;9.988;2023-08-01T08:16:29;97725.16;;;14.22;100.00
57114;BME280;42994;51.606;9.988;2023-08-01T08:18:56;97732.41;;;14.21;100.00
57114;BME280;42994;51.606;9.988;2023-08-01T08:21:22;97725.88;;;14.34;100.00
57114;BME280;42994;51.606;9.988;2023-08-01T08:23:49;97732.72;;;14.59;100.00
57114;BME280;42994;51.606;9.988;2023-08-01T08:26:16;97730.97;;;14.53;100.00
57114;BME280;42994;51.606;9.988;2023-08-01T08:28:42;97730.28;;;14.57;100.00
57114;BME280;42994;51.606;9.988;2023-08-01T08:31:09;97739.94;;;14.75;100.00
57114;BME280;42994;51.606;9.988;2023-08-01T08:33:37;97743.06;;;14.67;100.00
57114;BME280;42994;51.606;9.988;2023-08-01T08:36:04;97735.50;;;14.86;100.00
57114;BME280;42994;51.606;9.988;2023-08-01T08:38:30;97732.66;;;14.76;100.00
57114;BME280;42994;51.606;9.988;2023-08-01T08:41:05;97735.38;;;14.98;100.00
57114;BME280;42994;51.606;9.988;2023-08-01T08:43:33;97741.38;;;15.05;100.00
57114;BME280;42994;51.606;9.988;2023-08-01T08:46:02;97734.09;;;15.06;100.00
57114;BME280;42994;51.606;9.988;2023-08-01T08:48:29;97742.72;;;15.03;100.00
57114;BME280;42994;51.606;9.988;2023-08-01T08:50:59;97752.72;;;15.29;100.00
57114;BME280;42994;51.606;9.988;2023-08-01T08:53:26;97747.69;;;15.38;100.00
57114;BME280;42994;51.606;9.988;2023-08-01T08:55:53;97752.50;;;15.58;100.00
57114;BME280;42994;51.606;9.988;2023-08-01T08:58:20;97756.16;;;15.47;100.00
57114;BME280;42994;51.606;9.988;2023-08-01T09:00:48;97750.72;;;15.69;100.00
57114;BME280;42994;51.606;9.988;2023-08-01T09:03:15;97739.97;;;15.47;100.00
57114;BME280;42994;51.606;9.988;2023-08-01T09:05:45;97739.50;;;15.55;100.00
57114;BME280;42994;51.606;9.988;2023-08-01T09:08:19;97720.94;;;15.64;100.00
57114;BME280;42994;51.606;9.988;2023-08-01T09:10:46;97717.75;;;15.67;100.00
57114;BME280;42994;51.606;9.988;2023-08-01T09:13:13;97705.78;;;15.57;100.00
57114;BME280;42994;51.606;9.988;2023-08-01T09:15:41;97755.56;;;15.67;100.00
57114;BME280;42994;51.606;9.988;2023-08-01T09:18:09;97767.56;;;15.76;100.00
57114;BME280;42994;51.606;9.988;2023-08-01T09:20:46;97764.44;;;15.89;100.00
57114;BME280;42994;51.606;9.988;2023-08-01T09:23:13;97756.13;;;15.69;100.00
57114;BME280;42994;51.606;9.988;2023-08-01T09:25:41;97754.88;;;15.54;100.00
57114;BME280;42994;51.606;9.988;2023-08-01T09:28:15;97748.38;;;15.50;100.00
57114;BME280;42994;51.606;9.988;2023-08-01T09:30:47;97762.38;;;15.47;100.00
57114;BME280;42994;51.606;9.988;2023-08-01T09:33:14;97762.50;;;15.57;100.00
57114;BME280;42994;51.606;9.988;2023-08-01T09:35:41;97754.59;;;15.51;100.00
57114;BME280;42994;51.606;9.988;2023-08-01T09:38:10;97754.94;;;15.60;100.00
57114;BME280;42994;51.606;9.988;2023-08-01T09:40:37;97761.59;;;15.74;100.00
57114;BME280;42994;51.606;9.988;2023-08-01T09:43:05;97762.06;;;15.71;100.00
57114;BME280;42994;51.606;9.988;2023-08-01T09:45:32;97761.81;;;15.72;100.00
57114;BME280;42994;51.606;9.988;2023-08-01T09:47:59;97758.97;;;15.84;100.00
57114;BME280;42994;51.606;9.988;2023-08-01T09:50:26;97766.38;;;15.94;100.00
57114;BME280;42994;51.606;9.988;2023-08-01T09:52:53;97763.34;;;16.18;100.00
57114;BME280;42994;51.606;9.988;2023-08-01T09:55:26;97747.75;;;16.35;100.00
57114;BME280;42994;51.606;9.988;2023-08-01T09:57:53;97747.50;;;16.37;100.00
57114;BME280;42994;51.606;9.988;2023-08-01T10:00:25;97735.03;;;16.30;100.00
57114;BME280;42994;51.606;9.988;2023-08-01T10:02:52;97731.50;;;16.72;100.00
57114;BME280;42994;51.606;9.988;2023-08-01T10:05:20;97737.41;;;16.69;100.00
57114;BME280;42994;51.606;9.988;2023-08-01T10:07:48;97722.69;;;16.50;100.00
57114;BME280;42994;51.606;9.988;2023-08-01T10:10:17;97727.28;;;16.97;100.00
57114;BME280;42994;51.606;9.988;2023-08-01T10:12:45;97727.38;;;17.18;100.00
57114;BME280;42994;51.606;9.988;2023-08-01T10:15:14;97719.31;;;17.38;100.00
57114;BME280;42994;51.606;9.988;2023-08-01T10:17:42;97699.78;;;17.31;100.00
57114;BME280;42994;51.606;9.988;2023-08-01T10:20:10;97696.25;;;17.25;100.00
57114;BME280;42994;51.606;9.988;2023-08-01T10:22:39;97698.47;;;17.49;100.00
57114;BME280;42994;51.606;9.988;2023-08-01T10:25:07;97691.44;;;17.58;100.00
57114;BME280;42994;51.606;9.988;2023-08-01T10:27:35;97699.28;;;17.75;100.00
57114;BME280;42994;51.606;9.988;2023-08-01T10:30:03;97693.84;;;17.65;100.00
57114;BME280;42994;51.606;9.988;2023-08-01T10:32:32;97696.03;;;17.63;100.00
57114;BME280;42994;51.606;9.988;2023-08-01T10:35:00;97692.78;;;17.61;100.00
57114;BME280;42994;51.606;9.988;2023-08-01T10:37:38;97694.66;;;17.40;100.00
57114;BME280;42994;51.606;9.988;2023-08-01T10:40:07;97694.31;;;17.05;100.00
57114;BME280;42994;51.606;9.988;2023-08-01T10:42:40;97699.75;;;17.10;100.00
57114;BME280;42994;51.606;9.988;2023-08-01T10:45:08;97704.63;;;17.08;100.00
57114;BME280;42994;51.606;9.988;2023-08-01T10:47:45;97709.22;;;17.13;100.00
57114;BME280;42994;51.606;9.988;2023-08-01T10:50:14;97712.22;;;17.32;100.00
57114;BME280;42994;51.606;9.988;2023-08-01T10:52:42;97709.81;;;17.31;100.00
57114;BME280;42994;51.606;9.988;2023-08-01T10:55:09;97703.84;;;17.39;100.00
57114;BME280;42994;51.606;9.988;2023-08-01T10:57:38;97710.13;;;17.65;100.00
57114;BME280;42994;51.606;9.988;2023-08-01T11:00:06;97713.88;;;17.33;100.00
57114;BME280;42994;51.606;9.988;2023-08-01T11:02:35;97689.53;;;17.54;100.00
57114;BME280;42994;51.606;9.988;2023-08-01T11:05:03;97700.91;;;17.45;100.00
57114;BME280;42994;51.606;9.988;2023-08-01T11:07:32;97699.28;;;17.49;100.00
57114;BME280;42994;51.606;9.988;2023-08-01T11:10:07;97695.47;;;17.45;100.00
57114;BME280;42994;51.606;9.988;2023-08-01T11:12:35;97699.53;;;17.48;100.00
57114;BME280;42994;51.606;9.988;2023-08-01T11:15:03;97703.06;;;17.54;100.00
57114;BME280;42994;51.606;9.988;2023-08-01T11:17:31;97711.81;;;17.97;100.00
57114;BME280;42994;51.606;9.988;2023-08-01T11:20:03;97707.72;;;17.84;100.00
57114;BME280;42994;51.606;9.988;2023-08-01T11:22:31;97686.03;;;17.94;100.00
57114;BME280;42994;51.606;9.988;2023-08-01T11:24:58;97692.25;;;17.84;100.00
57114;BME280;42994;51.606;9.988;2023-08-01T11:27:26;97703.13;;;18.00;100.00
57114;BME280;42994;51.606;9.988;2023-08-01T11:29:52;97693.34;;;18.24;100.00
57114;BME280;42994;51.606;9.988;2023-08-01T11:32:19;99294.19;;;18.35;100.00
57114;BME280;42994;51.606;9.988;2023-08-01T11:34:47;99325.81;;;18.53;100.00
57114;BME280;42994;51.606;9.988;2023-08-01T11:37:15;98872.56;;;18.41;100.00
57114;BME280;42994;51.606;9.988;2023-08-01T11:39:43;98215.78;;;18.25;100.00
57114;BME280;42994;51.606;9.988;2023-08-01T11:42:15;98157.53;;;17.96;100.00
57114;BME280;42994;51.606;9.988;2023-08-01T11:44:42;98138.69;;;17.46;100.00
57114;BME280;42994;51.606;9.988;2023-08-01T11:47:11;98062.63;;;17.21;100.00
57114;BME280;42994;51.606;9.988;2023-08-01T11:49:38;98207.59;;;17.56;100.00
57114;BME280;42994;51.606;9.988;2023-08-01T11:52:06;98008.78;;;17.67;100.00
57114;BME280;42994;51.606;9.988;2023-08-01T11:54:45;98302.91;;;17.47;100.00
57114;BME280;42994;51.606;9.988;2023-08-01T11:57:12;98413.41;;;17.45;100.00
57114;BME280;42994;51.606;9.988;2023-08-01T11:59:46;98427.84;;;17.73;100.00
57114;BME280;42994;51.606;9.988;2023-08-01T12:02:20;98271.41;;;17.96;100.00
57114;BME280;42994;51.606;9.988;2023-08-01T12:04:47;98166.84;;;18.10;100.00
57114;BME280;42994;51.606;9.988;2023-08-01T12:07:14;98141.69;;;18.25;100.00
57114;BME280;42994;51.606;9.988;2023-08-01T12:09:41;98133.09;;;18.43;100.00
57114;BME280;42994;51.606;9.988;2023-08-01T12:12:09;98126.22;;;18.78;100.00
57114;BME280;42994;51.606;9.988;2023-08-01T12:14:39;98108.94;;;18.37;100.00
57114;BME280;42994;51.606;9.988;2023-08-01T12:17:05;98100.28;;;18.40;100.00
57114;BME280;42994;51.606;9.988;2023-08-01T12:19:32;98078.31;;;18.47;100.00
57114;BME280;42994;51.606;9.988;2023-08-01T12:21:59;98062.78;;;18.27;100.00
57114;BME280;42994;51.606;9.988;2023-08-01T12:24:26;98068.47;;;18.20;100.00
57114;BME280;42994;51.606;9.988;2023-08-01T12:26:52;98061.63;;;18.12;100.00
57114;BME280;42994;51.606;9.988;2023-08-01T12:29:20;98056.50;;;18.21;100.00
57114;BME280;42994;51.606;9.988;2023-08-01T12:31:47;98066.16;;;18.64;100.00
57114;BME280;42994;51.606;9.988;2023-08-01T12:34:14;98052.94;;;18.94;100.00
57114;BME280;42994;51.606;9.988;2023-08-01T12:36:40;98030.41;;;19.14;100.00
57114;BME280;42994;51.606;9.988;2023-08-01T12:39:07;97992.34;;;18.62;100.00
57114;BME280;42994;51.606;9.988;2023-08-01T12:41:36;97960.28;;;18.54;100.00
57114;BME280;42994;51.606;9.988;2023-08-01T12:44:03;97952.69;;;18.51;100.00
57114;BME280;42994;51.606;9.988;2023-08-01T12:46:31;97501.41;;;19.00;100.00
57114;BME280;42994;51.606;9.988;2023-08-01T12:48:58;99242.13;;;19.14;100.00
57114;BME280;42994;51.606;9.988;2023-08-01T12:51:25;98357.66;;;19.54;100.00
57114;BME280;42994;51.606;9.988;2023-08-01T12:53:52;98191.09;;;19.74;100.00
57114;BME280;42994;51.606;9.988;2023-08-01T12:56:18;98155.66;;;19.33;100.00
57114;BME280;42994;51.606;9.988;2023-08-01T12:58:45;98105.41;;;19.35;100.00